Latest Weather Observations for Bemboka RF72 (RFS)

IDN60801

Issued at 5:52 am EST Wednesday 2 September 2026 (issued every 10 minutes, with the page automatically refreshed every 10 minutes)

About weather observations | Map of weather stations | Latest weather observations for NSW | Other Formats
Station Details ID: 572042 Name: BEMBOKA (RFS) Lat: -36.61 Lon: 149.53 Height: 227.0 m

Portable automatic weather stations (PAWS) are operated by other organisations, such as Fire and Emergency Services, and are included here by agreement. Portable stations may be deployed to a location for a short period and their location may be subject to change without notice. Wind observations from these stations are provided from heights of either three (3) or ten (10) metres above ground level (AGL).

Data from the previous 72 hours. | See also: Recent months for locations in New South Wales
Date/Time
EST
Temp
°C
App
Temp
°C
Dew
Point
°C
Rel
Hum
%
Delta-T
°C
Wind Press
QNH
hPa
Press
MSL
hPa
Rain since
9am
mm
Dir  Spd
km/h
Gust
km/h
Spd
kts
Gust
kts
02/05:40am 15.6 13.7 6.9 56 4.3 SSE 6 7 3 4 1011.1 984.2 0.0
02/05:30am 15.4 13.9 6.9 57 4.2 SW 4 9 2 5 1011.1 984.2 0.0
02/05:20am 15.4 13.5 6.7 56 4.3 SW 6 13 3 7 1011.2 984.3 0.0
02/05:10am 15.7 13.3 6.9 56 4.4 W 9 15 5 8 1011.4 984.5 0.0
02/05:00am 16.3 14.3 6.9 53 4.7 WSW 7 15 4 8 1011.4 984.5 0.0
02/04:50am 16.1 12.9 6.9 54 4.6 W 13 20 7 11 1011.3 984.4 0.0
02/04:40am 17.0 13.5 7.2 52 4.9 W 15 20 8 11 1011.1 984.2 0.0
02/04:30am 16.4 14.0 6.9 53 4.7 WNW 9 11 5 6 1011.1 984.2 0.0
02/04:20am 17.5 15.7 7.1 50 5.3 WNW 6 11 3 6 1011.2 984.3 0.0
02/04:10am 17.5 14.7 7.0 50 5.3 W 11 13 6 7 1011.0 984.1 0.0
02/04:00am 17.7 15.3 7.1 50 5.4 WSW 9 13 5 7 1010.9 984.0 0.0
02/03:50am 17.3 14.9 7.0 50 5.2 W 9 19 5 10 1010.9 984.0 0.0
02/03:40am 17.6 14.8 7.0 49 5.4 WSW 11 22 6 12 1010.8 983.9 0.0
02/03:30am 17.6 14.8 7.1 50 5.3 W 11 24 6 13 1010.9 984.0 0.0
02/03:20am 18.0 15.6 7.1 49 5.5 WNW 9 17 5 9 1010.8 983.9 0.0
02/03:10am 18.0 15.2 7.0 48 5.6 WNW 11 20 6 11 1010.9 984.0 0.0
02/03:00am 17.8 15.0 6.9 49 5.5 NW 11 19 6 10 1011.3 984.4 0.0
02/02:50am 18.0 15.2 6.9 48 5.6 NW 11 17 6 9 1011.5 984.6 0.0
02/02:40am 17.7 15.8 6.9 49 5.4 NNE 6 15 3 8 1011.5 984.6 0.0
02/02:30am 18.0 16.0 7.1 49 5.5 NNW 7 15 4 8 1011.4 984.5 0.0
02/02:20am 17.9 14.7 7.0 49 5.5 NW 13 26 7 14 1011.5 984.6 0.0
02/02:10am 18.4 15.7 7.3 48 5.7 NNW 11 17 6 9 1011.7 984.8 0.0
02/02:00am 18.6 16.6 7.3 47 5.8 NNW 7 13 4 7 1011.9 985.0 0.0
02/01:50am 18.9 16.6 7.3 47 5.9 SE 9 13 5 7 1012.0 985.1 0.0
02/01:40am 18.6 16.8 7.3 47 5.8 SE 6 9 3 5 1012.0 985.1 0.0
02/01:30am 18.7 17.3 7.3 47 5.8 WSW 4 7 2 4 1012.0 985.1 0.0
02/01:20am 18.8 16.5 7.5 47 5.8 NNE 9 17 5 9 1011.7 984.8 0.0
02/01:10am 18.9 17.0 7.4 47 5.9 NE 7 13 4 7 1011.6 984.7 0.0
02/01:00am 18.4 16.5 7.6 49 5.5 ENE 7 11 4 6 1011.8 984.9 0.0
02/12:50am 18.7 16.8 7.5 48 5.8 NE 7 11 4 6 1011.8 984.9 0.0
02/12:40am 18.7 17.0 7.5 48 5.8 ENE 6 7 3 4 1011.8 984.9 0.0
02/12:30am 19.0 16.3 7.5 47 5.9 N 11 24 6 13 1011.8 984.9 0.0
02/12:20am 18.7 16.8 7.5 48 5.8 NE 7 9 4 5 1011.9 985.0 0.0
02/12:10am 18.7 16.4 7.4 47 5.8 WSW 9 15 5 8 1011.9 985.0 0.0
02/12:00am 19.2 16.9 7.4 46 6.1 SSW 9 15 5 8 1012.2 985.2 0.0
 
Date/Time
EST
Temp
°C
App
Temp
°C
Dew
Point
°C
Rel
Hum
%
Delta-T
°C
Wind Press
QNH
hPa
Press
MSL
hPa
Rain since
9am
mm
Dir  Spd
km/h
Gust
km/h
Spd
kts
Gust
kts
01/11:50pm 19.0 17.2 7.3 46 6.0 SE 6 11 3 6 1012.4 985.4 0.0
01/11:40pm 19.0 17.0 7.2 46 6.0 ESE 7 15 4 8 1012.4 985.4 0.0
01/11:30pm 18.5 16.7 7.2 47 5.8 ESE 6 9 3 5 1012.3 985.3 0.0
01/11:20pm 19.3 17.5 7.2 45 6.2 N 6 13 3 7 1012.4 985.4 0.0
01/11:10pm 19.3 17.3 7.3 45 6.2 N 7 19 4 10 1012.3 985.3 0.0
01/11:00pm 18.9 16.9 7.2 46 6.0 NNE 7 17 4 9 1012.6 985.6 0.0
01/10:50pm 19.0 17.0 7.1 46 6.1 NW 7 13 4 7 1012.7 985.7 0.0
01/10:40pm 19.1 17.1 7.1 45 6.1 S 7 13 4 7 1013.1 986.1 0.0
01/10:30pm 19.5 17.2 7.3 45 6.3 E 9 17 5 9 1013.2 986.2 0.0
01/10:20pm 19.6 16.1 7.3 45 6.3 NW 15 37 8 20 1013.4 986.4 0.0
01/10:10pm 19.5 15.6 7.1 44 6.3 NNW 17 24 9 13 1013.3 986.3 0.0
01/10:00pm 19.4 14.9 7.1 44 6.3 WNW 20 32 11 17 1013.6 986.6 0.0
01/09:50pm 19.4 13.0 7.0 44 6.3 WNW 30 39 16 21 1013.6 986.6 0.0
01/09:40pm 19.2 11.1 7.0 45 6.2 WNW 39 65 21 35 1013.1 986.1 0.0
01/09:30pm 19.3 10.9 7.3 45 6.2 WNW 41 57 22 31 1012.6 985.6 0.0
01/09:20pm 19.2 10.8 7.3 46 6.1 WNW 41 59 22 32 1012.4 985.4 0.0
01/09:10pm 19.2 10.8 7.3 46 6.1 WNW 41 54 22 29 1012.2 985.2 0.0
01/09:00pm 19.5 10.1 7.2 45 6.3 WNW 46 61 25 33 1011.9 985.0 0.0
01/08:50pm 19.6 12.3 7.0 44 6.4 WNW 35 57 19 31 1012.2 985.2 0.0
01/08:40pm 19.9 11.4 6.8 42 6.7 WNW 41 57 22 31 1011.8 984.9 0.0
01/08:30pm 19.7 11.5 6.5 42 6.7 WNW 39 54 21 29 1012.4 985.4 0.0
01/08:20pm 19.8 10.3 6.7 42 6.7 WNW 46 57 25 31 1012.3 985.3 0.0
01/08:10pm 19.7 12.3 6.8 43 6.6 WNW 35 52 19 28 1012.7 985.7 0.0
01/08:00pm 19.6 11.0 6.3 42 6.7 WNW 41 61 22 33 1012.7 985.7 0.0
01/07:50pm 19.9 11.2 6.2 40 6.9 WNW 41 69 22 37 1012.7 985.7 0.0
01/07:40pm 19.7 11.9 6.6 42 6.7 WNW 37 57 20 31 1013.0 986.0 0.0
01/07:30pm 19.7 11.9 6.6 42 6.7 WNW 37 54 20 29 1012.9 985.9 0.0
01/07:20pm 19.7 14.6 6.0 40 6.9 WNW 22 30 12 16 1012.9 985.9 0.0
01/07:10pm 19.8 13.1 5.8 40 7.0 WNW 30 44 16 24 1013.1 986.1 0.0
01/07:00pm 19.8 13.2 5.9 40 7.0 W 30 44 16 24 1013.4 986.4 0.0
01/06:50pm 20.1 14.9 5.7 39 7.2 W 22 33 12 18 1013.4 986.4 0.0
01/06:40pm 20.2 16.3 5.2 37 7.4 W 15 30 8 16 1013.2 986.2 0.0
01/06:30pm 19.9 15.9 4.9 37 7.4 W 15 26 8 14 1013.3 986.3 0.0
01/06:20pm 20.4 14.3 4.8 36 7.7 W 26 32 14 17 1013.1 986.1 0.0
01/06:10pm 20.6 14.9 4.8 35 7.8 W 24 33 13 18 1012.9 985.9 0.0
01/06:00pm 20.7 12.5 4.6 34 7.9 WNW 37 56 20 30 1012.7 985.7 0.0
01/05:50pm 20.8 13.3 4.4 34 8.0 WNW 33 70 18 38 1012.9 985.9 0.0
01/05:40pm 20.7 14.5 4.3 34 8.0 WNW 26 39 14 21 1013.2 986.2 0.0
01/05:30pm 20.9 13.6 4.6 34 8.0 WNW 32 48 17 26 1013.2 986.2 0.0
01/05:20pm 21.3 15.1 4.5 33 8.3 WNW 26 59 14 32 1012.9 985.9 0.0
01/05:10pm 21.2 17.1 4.6 33 8.2 WNW 15 33 8 18 1012.8 985.8 0.0
01/05:00pm 21.3 18.1 4.9 34 8.1 WNW 11 17 6 9 1013.2 986.2 0.0
01/04:50pm 21.3 16.9 4.8 34 8.2 WNW 17 44 9 24 1013.2 986.2 0.0
01/04:40pm 21.4 17.8 4.8 33 8.2 WNW 13 24 7 13 1013.3 986.3 0.0
01/04:30pm 21.6 18.0 4.8 33 8.3 W 13 26 7 14 1013.6 986.6 0.0
01/04:20pm 21.8 16.8 4.6 32 8.5 NW 20 28 11 15 1013.7 986.7 0.0
01/04:10pm 22.0 16.2 4.5 32 8.7 W 24 43 13 23 1013.8 986.8 0.0
01/04:00pm 22.2 17.2 4.6 31 8.7 WNW 20 43 11 23 1013.9 986.9 0.0
01/03:50pm 22.5 17.9 3.9 29 9.1 W 17 22 9 12 1014.0 987.0 0.0
01/03:40pm 23.0 17.1 3.8 28 9.5 WNW 24 33 13 18 1013.8 986.8 0.0
01/03:30pm 23.2 18.1 4.1 28 9.5 W 20 44 11 24 1013.9 986.9 0.0
01/03:20pm 23.3 19.1 3.6 27 9.7 WNW 15 26 8 14 1014.1 987.1 0.0
01/03:10pm 23.6 18.4 3.5 27 9.9 WNW 20 26 11 14 1014.3 987.3 0.0
01/03:00pm 24.1 17.1 4.2 27 9.9 WNW 30 39 16 21 1014.3 987.3 0.0
01/02:50pm 23.8 18.2 3.5 26 10.0 WNW 22 39 12 21 1014.6 987.6 0.0
01/02:40pm 24.5 19.5 3.7 26 10.3 NW 19 24 10 13 1014.5 987.5 0.0
01/02:30pm 24.4 18.8 3.4 25 10.4 NW 22 33 12 18 1014.4 987.4 0.0
01/02:20pm 24.3 18.4 3.9 26 10.1 NW 24 32 13 17 1014.5 987.5 0.0
01/02:10pm 24.3 18.3 3.4 25 10.3 NW 24 32 13 17 1014.4 987.4 0.0
01/02:00pm 24.4 19.2 3.4 25 10.4 NW 20 39 11 21 1014.5 987.5 0.0
01/01:50pm 24.8 20.6 3.7 25 10.5 NW 15 19 8 10 1014.6 987.6 0.0
01/01:40pm 24.4 18.7 3.1 25 10.4 WNW 22 26 12 14 1014.9 987.9 0.0
01/01:30pm 24.5 19.2 3.0 24 10.5 WNW 20 33 11 18 1015.1 988.1 0.0
01/01:20pm 24.7 18.7 3.1 24 10.6 WNW 24 32 13 17 1015.2 988.2 0.0
01/01:10pm 24.6 19.7 4.0 26 10.3 NW 19 28 10 15 1015.3 988.3 0.0
01/01:00pm 24.5 19.3 3.4 25 10.4 NW 20 28 11 15 1015.7 988.7 0.0
01/12:50pm 24.5 19.3 3.4 25 10.4 WNW 20 26 11 14 1015.9 988.9 0.0
01/12:40pm 24.3 16.5 3.0 25 10.4 WNW 33 50 18 27 1016.1 989.1 0.0
01/12:30pm 24.1 18.8 3.1 25 10.3 WNW 20 30 11 16 1016.3 989.3 0.0
01/12:20pm 24.1 17.3 3.0 25 10.3 WNW 28 33 15 18 1016.6 989.6 0.0
01/12:10pm 24.0 18.4 3.6 26 10.1 WNW 22 41 12 22 1016.9 989.8 0.0
01/12:00pm 24.0 18.7 2.8 25 10.3 WNW 20 37 11 20 1017.2 990.1 0.0
01/11:50am 24.0 18.9 4.1 27 9.9 NW 20 37 11 20 1017.4 990.3 0.0
01/11:40am 24.0 18.4 3.5 26 10.1 NW 22 32 12 17 1017.6 990.5 0.0
01/11:30am 23.9 19.6 3.4 26 10.1 NW 15 22 8 12 1017.7 990.6 0.0
01/11:20am 24.0 20.5 3.3 26 10.2 NW 11 15 6 8 1017.9 990.8 0.0
01/11:10am 23.8 20.1 4.4 28 9.7 NW 13 22 7 12 1018.0 990.9 0.0
01/11:00am 23.0 17.7 3.2 27 9.6 NW 20 37 11 20 1018.3 991.2 0.0
01/10:50am 23.1 19.9 3.2 27 9.7 W 9 19 5 10 1018.3 991.2 0.0
01/10:40am 22.6 19.5 3.4 28 9.4 NW 9 17 5 9 1018.2 991.1 0.0
01/10:30am 22.9 17.8 3.1 27 9.6 WNW 19 33 10 18 1018.3 991.2 0.0
01/10:20am 22.0 18.9 3.7 30 8.9 W 9 26 5 14 1018.3 991.2 0.0
01/10:10am 21.9 18.2 4.6 32 8.6 WNW 13 28 7 15 1018.5 991.4 0.0
01/10:00am 21.4 17.3 4.5 33 8.3 NW 15 24 8 13 1018.7 991.6 0.0
01/09:50am 20.9 17.6 4.5 34 8.1 SW 11 19 6 10 1019.1 992.0 0.0
01/09:40am 20.3 17.5 3.1 32 8.2 ENE 7 20 4 11 1019.6 992.5 0.0
01/09:30am 20.2 16.2 2.7 31 8.3 WSW 13 24 7 13 1019.6 992.5 0.0
01/09:20am 20.1 16.9 3.1 32 8.1 SW 9 24 5 13 1019.5 992.4 0.0
01/09:10am 19.7 16.6 3.5 34 7.7 SE 9 22 5 12 1019.7 992.6 0.0
01/09:00am 18.7 15.6 3.7 37 7.1 ESE 9 17 5 9 1020.0 992.9 0.0
01/08:50am 17.1 13.5 6.9 51 5.1 E 15 20 8 11 1019.9 992.8 0.0
01/08:40am 16.7 14.3 7.0 52 4.9 SE 9 11 5 6 1020.2 993.1 0.0
01/08:30am 18.3 15.0 2.4 34 7.4 SW 9 20 5 11 1020.1 993.0 0.0
01/08:20am 14.4 11.8 4.0 49 4.8 E 7 13 4 7 1020.4 993.3 0.0
01/08:10am 13.9 11.2 7.2 64 3.3 E 11 19 6 10 1020.4 993.3 0.0
01/08:00am 15.9 12.9 7.9 59 4.1 ESE 13 24 7 13 1020.2 993.1 0.0
01/07:50am 11.2 9.1 9.8 91 0.7 ESE 11 19 6 10 1020.4 993.3 0.0
01/07:40am 9.2 7.6 8.6 96 0.3 SSE 7 11 4 6 1020.5 993.4 0.0
01/07:30am 7.1 4.6 6.4 95 0.3 SE 9 17 5 9 1020.5 993.4 0.0
01/07:20am 6.6 4.3 5.9 95 0.3 SSE 7 17 4 9 1020.6 993.5 0.0
01/07:10am 5.9 3.7 5.2 95 0.3 ENE 6 13 3 7 1020.8 993.7 0.0
01/07:00am 4.8 2.2 4.0 95 0.3 SW 7 13 4 7 1020.8 993.7 0.0
01/06:50am 4.8 2.2 4.0 95 0.3 ENE 7 13 4 7 1021.1 994.0 0.0
01/06:40am 4.4 1.9 3.5 94 0.4 SSW 6 9 3 5 1021.1 994.0 0.0
01/06:30am 4.6 2.5 3.9 95 0.3 N 4 6 2 3 1021.2 994.1 0.0
01/06:20am 4.2 2.0 3.4 94 0.3 S 4 7 2 4 1021.2 994.1 0.0
01/06:10am 4.0 1.4 3.1 94 0.4 S 6 9 3 5 1021.3 994.2 0.0
01/06:00am 4.3 1.7 3.4 94 0.4 SSE 6 9 3 5 1021.3 994.2 0.0
01/05:50am 4.3 2.1 3.4 94 0.4 E 4 7 2 4 1021.5 994.3 0.0
01/05:40am 3.9 1.7 3.1 94 0.3 E 4 7 2 4 1021.6 994.4 0.0
01/05:30am 4.0 1.4 3.2 94 0.3 NNW 6 9 3 5 1021.7 994.5 0.0
01/05:20am 3.5 0.8 2.6 94 0.4 SW 6 7 3 4 1021.8 994.6 0.0
01/05:10am 3.9 1.6 2.9 93 0.4 SW 4 9 2 5 1021.9 994.7 0.0
01/05:00am 4.8 2.7 4.0 95 0.3 NW 4 6 2 3 1022.1 994.9 0.0
01/04:50am 3.8 1.5 2.8 93 0.4 WSW 4 7 2 4 1022.2 995.0 0.0
01/04:40am 4.5 2.3 3.6 94 0.4 WNW 4 9 2 5 1022.3 995.1 0.0
01/04:30am 4.3 2.1 3.4 94 0.4 SW 4 6 2 3 1022.4 995.2 0.0
01/04:20am 5.2 3.2 4.4 95 0.3 WSW 4 7 2 4 1022.6 995.4 0.0
01/04:10am 4.7 2.6 3.8 94 0.4 W 4 6 2 3 1022.6 995.4 0.0
01/04:00am 4.5 2.0 3.6 94 0.4 NW 6 9 3 5 1022.6 995.4 0.0
01/03:50am 4.4 1.7 3.6 94 0.3 W 7 9 4 5 1022.7 995.5 0.0
01/03:40am 3.9 1.6 2.9 93 0.4 W 4 6 2 3 1022.9 995.7 0.0
01/03:30am 4.2 2.0 3.2 93 0.4 W 4 6 2 3 1022.9 995.7 0.0
01/03:20am 4.2 2.0 3.1 92 0.5 SW 4 9 2 5 1022.9 995.7 0.0
01/03:10am 4.7 2.2 3.7 93 0.4 W 6 7 3 4 1023.0 995.8 0.0
01/03:00am 4.5 2.3 3.5 93 0.4 W 4 7 2 4 1023.3 996.1 0.0
01/02:50am 5.2 3.2 4.3 94 0.4 WSW 4 6 2 3 1023.3 996.1 0.0
01/02:40am 5.2 3.2 4.3 94 0.4 WNW 4 6 2 3 1023.6 996.4 0.0
01/02:30am 4.4 1.8 3.4 93 0.4 W 6 11 3 6 1023.8 996.6 0.0
01/02:20am 4.9 2.4 3.9 93 0.4 W 6 9 3 5 1023.9 996.7 0.0
01/02:10am 5.4 3.4 4.5 94 0.4 W 4 6 2 3 1024.2 997.0 0.0
01/02:00am 4.4 2.2 3.4 93 0.4 WSW 4 7 2 4 1024.5 997.3 0.0
01/01:50am 5.3 3.7 4.3 93 0.4 W 2 4 1 2 1024.7 997.5 0.0
01/01:40am 5.0 2.9 3.9 93 0.5 NW 4 6 2 3 1024.9 997.7 0.0
01/01:30am 4.3 2.1 3.1 92 0.5 WNW 4 6 2 3 1025.1 997.9 0.0
01/01:20am 5.1 3.4 4.1 93 0.4 NW 2 4 1 2 1025.2 998.0 0.0
01/01:10am 4.8 3.0 3.6 92 0.5 WSW 2 4 1 2 1025.3 998.1 0.0
01/01:00am 5.0 3.3 4.0 93 0.4 WSW 2 4 1 2 1025.6 998.4 0.0
01/12:50am 4.8 3.0 3.6 92 0.5 SW 2 4 1 2 1025.6 998.4 0.0
01/12:40am 5.7 4.1 4.5 92 0.5 NNW 2 4 1 2 1025.6 998.4 0.0
01/12:30am 5.7 4.1 4.5 92 0.5 NW 2 4 1 2 1025.8 998.6 0.0
01/12:20am 5.9 4.4 4.9 93 0.4 NW 2 4 1 2 1025.9 998.7 0.0
01/12:10am 5.3 3.6 4.0 91 0.6 WSW 2 4 1 2 1025.9 998.7 0.0
01/12:00am 5.8 4.2 4.5 91 0.6 WNW 2 2 1 1 1026.1 998.8 0.0
 
Date/Time
EST
Temp
°C
App
Temp
°C
Dew
Point
°C
Rel
Hum
%
Delta-T
°C
Wind Press
QNH
hPa
Press
MSL
hPa
Rain since
9am
mm
Dir  Spd
km/h
Gust
km/h
Spd
kts
Gust
kts
31/11:50pm 6.1 4.6 4.8 91 0.6 SW 2 2 1 1 1026.1 998.8 0.0
31/11:40pm 6.1 4.9 4.8 91 0.6 CALM 0 2 0 1 1026.2 998.9 0.0
31/11:30pm 6.5 5.0 5.2 91 0.6 NW 2 2 1 1 1026.4 999.1 0.0
31/11:20pm 6.6 5.2 5.4 92 0.5 NW 2 2 1 1 1026.6 999.3 0.0
31/11:10pm 6.1 4.5 4.7 91 0.6 SSW 2 4 1 2 1026.7 999.4 0.0
31/11:00pm 6.7 5.3 5.4 91 0.6 W 2 2 1 1 1026.8 999.5 0.0
31/10:50pm 7.3 6.0 5.9 91 0.6 NW 2 2 1 1 1027.0 999.7 0.0
31/10:40pm 7.1 5.7 5.7 91 0.6 NW 2 2 1 1 1027.1 999.8 0.0
31/10:30pm 7.3 6.4 6.0 91 0.6 CALM 0 2 0 1 1027.2 999.9 0.0
31/10:20pm 7.1 5.7 5.6 90 0.7 S 2 2 1 1 1027.3 1000.0 0.0
31/10:10pm 7.0 5.6 5.4 89 0.7 W 2 2 1 1 1027.4 1000.1 0.0
31/10:00pm 7.6 6.3 6.1 90 0.7 WNW 2 2 1 1 1027.4 1000.1 0.0
31/09:50pm 7.8 6.9 6.2 90 0.7 CALM 0 2 0 1 1027.5 1000.2 0.0
31/09:40pm 7.9 6.7 6.3 90 0.7 W 2 2 1 1 1027.6 1000.3 0.0
31/09:30pm 7.8 6.9 6.1 89 0.8 CALM 0 2 0 1 1027.6 1000.3 0.0
31/09:20pm 8.5 7.4 6.9 90 0.8 WNW 2 2 1 1 1027.7 1000.4 0.0
31/09:10pm 8.4 7.6 6.7 89 0.8 CALM 0 2 0 1 1027.8 1000.5 0.0
31/09:00pm 8.6 7.5 6.8 88 0.8 NW 2 2 1 1 1027.8 1000.5 0.0
31/08:50pm 8.3 7.1 6.3 87 0.9 W 2 4 1 2 1027.9 1000.6 0.0
31/08:40pm 8.6 7.4 6.6 87 0.9 W 2 2 1 1 1027.9 1000.6 0.0
31/08:30pm 8.9 7.8 6.9 87 0.9 N 2 2 1 1 1027.9 1000.6 0.0
31/08:20pm 8.9 7.8 6.9 87 0.9 WNW 2 4 1 2 1027.9 1000.6 0.0
31/08:10pm 9.1 8.0 6.9 86 1.0 SW 2 4 1 2 1027.9 1000.6 0.0
31/08:00pm 9.2 8.1 7.0 86 1.0 WSW 2 4 1 2 1027.9 1000.6 0.0
31/07:50pm 9.4 8.3 7.0 85 1.1 W 2 4 1 2 1027.8 1000.5 0.0
31/07:40pm 9.9 8.1 7.3 84 1.3 NW 6 6 3 3 1027.8 1000.5 0.0
31/07:30pm 9.7 8.6 6.9 83 1.3 SW 2 4 1 2 1027.8 1000.5 0.0
31/07:20pm 10.3 9.3 7.4 82 1.4 W 2 4 1 2 1027.8 1000.5 0.0
31/07:10pm 10.9 10.1 8.1 83 1.4 WNW 2 4 1 2 1027.8 1000.5 0.0
31/07:00pm 11.1 10.2 7.9 81 1.6 N 2 4 1 2 1027.7 1000.4 0.0
31/06:50pm 11.5 10.7 8.2 80 1.6 NNW 2 2 1 1 1027.5 1000.2 0.0
31/06:40pm 11.8 11.0 8.1 78 1.8 W 2 2 1 1 1027.4 1000.1 0.0
31/06:30pm 12.4 11.7 8.6 77 1.9 SW 2 2 1 1 1027.3 1000.0 0.0
31/06:20pm 12.8 12.1 8.5 75 2.2 N 2 4 1 2 1027.1 999.8 0.0
31/06:10pm 13.4 12.8 9.0 75 2.2 NNW 2 4 1 2 1027.1 999.8 0.0
31/06:00pm 14.1 13.6 9.2 72 2.5 ENE 2 4 1 2 1027.1 999.8 0.0
31/05:50pm 14.4 13.4 8.9 69 2.8 N 4 6 2 3 1027.0 999.7 0.0
31/05:40pm 15.0 14.1 9.1 68 3.1 N 4 7 2 4 1027.0 999.7 0.0
31/05:30pm 15.4 14.4 9.0 65 3.3 NE 4 6 2 3 1026.9 999.6 0.0
31/05:20pm 16.4 15.2 9.6 64 3.6 ESE 6 6 3 3 1026.9 999.6 0.0
31/05:10pm 16.6 15.4 9.4 62 3.8 ESE 6 11 3 6 1026.8 999.5 0.0
31/05:00pm 16.9 15.5 9.4 61 4.0 SE 7 13 4 7 1026.7 999.4 0.0
31/04:50pm 17.2 15.4 9.4 60 4.1 SE 9 13 5 7 1026.7 999.4 0.0
31/04:40pm 17.6 15.9 9.8 60 4.2 SE 9 15 5 8 1026.6 999.3 0.0
31/04:30pm 17.9 16.4 10.6 62 4.0 SE 9 15 5 8 1026.6 999.3 0.0
31/04:20pm 17.9 16.1 10.7 62 3.9 SSE 11 13 6 7 1026.6 999.3 0.0
31/04:10pm 18.2 16.4 10.8 62 4.0 SE 11 13 6 7 1026.6 999.3 0.0
31/04:00pm 18.4 17.0 11.0 62 4.1 SE 9 17 5 9 1026.6 999.3 0.0
31/03:50pm 18.5 17.2 11.1 62 4.1 SE 9 15 5 8 1026.6 999.3 0.0
31/03:40pm 18.7 16.6 11.2 61 4.1 SE 13 15 7 8 1026.6 999.3 0.0
31/03:30pm 18.9 16.9 11.4 61 4.2 SSE 13 19 7 10 1026.5 999.2 0.0
31/03:20pm 19.0 16.9 11.3 61 4.3 SSE 13 19 7 10 1026.5 999.2 0.0
31/03:10pm 19.5 17.5 11.5 60 4.4 SSE 13 22 7 12 1026.5 999.2 0.0
31/03:00pm 19.4 16.7 11.6 60 4.3 SE 17 24 9 13 1026.4 999.1 0.0
31/02:50pm 19.7 17.0 11.6 59 4.5 SE 17 22 9 12 1026.5 999.2 0.0
31/02:40pm 19.8 16.7 11.5 58 4.6 ESE 19 32 10 17 1026.4 999.1 0.0
31/02:30pm 20.6 17.3 11.7 56 5.0 SSE 20 24 11 13 1026.4 999.1 0.0
31/02:20pm 21.1 18.6 11.1 52 5.6 SE 15 22 8 12 1026.4 999.1 0.0
31/02:10pm 21.7 19.4 10.3 48 6.3 SSE 13 19 7 10 1026.4 999.1 0.0
31/02:00pm 22.2 19.5 5.8 34 8.3 SSE 9 11 5 6 1026.4 999.1 0.0
31/01:50pm 21.9 19.3 5.9 35 8.1 SSE 9 15 5 8 1026.6 999.3 0.0
31/01:40pm 22.2 19.8 5.4 33 8.5 ESE 7 11 4 6 1026.6 999.3 0.0
31/01:30pm 21.8 19.1 5.4 34 8.3 ESE 9 13 5 7 1026.8 999.5 0.0
31/01:20pm 21.7 19.4 5.8 35 8.1 SSW 7 11 4 6 1026.9 999.6 0.0
31/01:10pm 21.4 18.8 6.1 37 7.8 SSE 9 13 5 7 1027.0 999.7 0.0
31/01:00pm 21.5 19.3 6.1 36 7.8 ESE 7 13 4 7 1027.2 999.9 0.0
31/12:50pm 21.4 18.3 3.7 31 8.6 S 9 15 5 8 1027.3 1000.0 0.0
31/12:40pm 21.1 18.3 2.3 29 8.9 SE 6 9 3 5 1027.4 1000.1 0.0
31/12:30pm 20.7 17.9 2.2 29 8.7 SE 6 7 3 4 1027.6 1000.3 0.0
31/12:20pm 20.7 18.1 3.1 31 8.4 E 6 11 3 6 1027.8 1000.5 0.0
31/12:10pm 20.7 17.8 1.7 28 8.8 ENE 6 7 3 4 1028.0 1000.7 0.0
31/12:00pm 20.2 17.2 2.2 30 8.4 E 7 9 4 5 1028.2 1000.9 0.0
31/11:50am 20.1 17.5 3.3 33 8.0 E 6 11 3 6 1028.3 1001.0 0.0
31/11:40am 19.7 16.8 2.4 31 8.1 E 7 11 4 6 1028.4 1001.1 0.0
31/11:30am 19.5 16.8 2.4 32 8.0 E 6 13 3 7 1028.6 1001.3 0.0
31/11:20am 19.0 16.4 4.3 38 7.1 ESE 7 11 4 6 1028.8 1001.5 0.0
31/11:10am 18.6 16.3 5.0 40 6.6 ESE 6 9 3 5 1028.9 1001.6 0.0
31/11:00am 18.1 15.8 5.8 44 6.1 ESE 7 11 4 6 1029.0 1001.7 0.0
31/10:50am 18.0 15.8 6.1 45 5.9 ESE 7 9 4 5 1029.2 1001.9 0.0
31/10:40am 17.8 15.6 6.2 46 5.8 E 7 13 4 7 1029.3 1002.0 0.0
31/10:30am 17.9 15.8 5.8 45 6.0 NE 6 9 3 5 1029.4 1002.1 0.0
31/10:20am 18.9 16.2 2.5 33 7.6 N 6 7 3 4 1029.5 1002.2 0.0
31/09:50am 16.7 14.3 2.3 38 6.6 SE 4 6 2 3 1029.6 1002.3 0.0
31/09:40am 15.8 13.7 1.8 39 6.3 SSW 2 4 1 2 1029.6 1002.3 0.0
31/09:30am 15.0 12.7 2.5 43 5.6 S 4 6 2 3 1029.7 1002.4 0.0
31/09:20am 15.0 13.1 2.6 43 5.6 WNW 2 6 1 3 1029.8 1002.5 0.0
31/09:10am 14.3 11.9 2.4 44 5.3 N 4 6 2 3 1030.0 1002.7 0.0
31/09:00am 13.5 11.4 3.8 52 4.4 NNW 4 6 2 3 1030.1 1002.8 0.0
31/08:50am 12.1 9.7 4.5 59 3.5 NNW 6 6 3 3 1030.2 1002.9 0.0
31/08:40am 11.2 8.7 3.8 60 3.3 NNW 6 7 3 4 1030.2 1002.9 0.0
31/08:30am 10.1 8.1 4.6 68 2.5 N 4 6 2 3 1030.3 1003.0 0.0
31/08:20am 9.0 7.0 4.4 73 2.1 N 4 6 2 3 1030.3 1003.0 0.0
31/08:10am 8.2 6.2 4.3 76 1.7 NNE 4 6 2 3 1030.2 1002.9 0.0
31/08:00am 6.0 3.3 2.5 78 1.5 N 6 6 3 3 1030.0 1002.7 0.0
31/07:50am 4.9 2.5 2.1 82 1.1 ENE 4 6 2 3 1029.8 1002.5 0.0
31/07:40am 3.9 1.4 1.6 85 0.9 SSE 4 6 2 3 1029.6 1002.3 0.0
31/07:30am 3.0 0.3 0.5 84 1.0 SSW 4 6 2 3 1029.4 1002.1 0.0
31/07:20am 3.3 1.0 0.7 83 1.0 NNW 2 6 1 3 1029.2 1001.9 0.0
31/07:10am 3.5 1.2 0.7 82 1.1 NW 2 4 1 2 1029.2 1001.9 0.0
31/07:00am 2.4 0.1 0.3 86 0.8 NW 2 4 1 2 1029.1 1001.8 0.0
31/06:50am 1.9 -0.9 -0.1 87 0.7 E 4 7 2 4 1029.0 1001.7 0.0
31/06:40am 1.7 -1.5 -0.2 87 0.7 E 6 7 3 4 1028.9 1001.6 0.0
31/06:30am 1.6 -1.2 -0.5 86 0.8 SE 4 6 2 3 1028.8 1001.5 0.0
31/06:20am 2.0 -0.8 -0.2 85 0.8 S 4 6 2 3 1028.7 1001.4 0.0
31/06:10am - - - - - - 4 - 2 - - - -
31/06:00am 2.6 -0.1 0.1 83 0.9 WNW 4 6 2 3 1028.6 1001.3 0.0
31/05:50am 3.1 0.9 0.9 85 0.9 WNW 2 4 1 2 1028.5 1001.2 0.0
31/05:40am 2.6 0.3 0.6 87 0.8 SE 2 4 1 2 1028.5 1001.2 0.0
31/05:30am 2.4 0.1 0.1 85 0.9 WNW 2 4 1 2 1028.4 1001.1 0.0
31/05:10am 2.5 -0.1 0.8 88 0.7 ESE 4 6 2 3 1028.4 1001.1 0.0
31/05:00am 3.3 0.9 1.9 90 0.6 WSW 4 9 2 5 1028.4 1001.1 0.0
31/04:50am 2.8 -0.2 1.1 88 0.7 WSW 6 13 3 7 1028.4 1001.1 0.0
31/04:40am 2.0 -1.0 0.6 90 0.5 NW 6 13 3 7 1028.4 1001.1 0.0
31/04:30am 1.4 -1.3 0.0 90 0.5 W 4 6 2 3 1028.6 1001.3 0.0
31/04:20am 1.7 -1.0 0.3 90 0.5 W 4 7 2 4 1028.5 1001.2 0.0
31/04:00am 2.1 -0.5 0.9 92 0.5 W 4 7 2 4 1028.4 1001.1 0.0
31/03:50am 2.0 -0.6 0.8 92 0.5 W 4 11 2 6 1028.4 1001.1 0.0
31/03:40am 1.9 -1.1 0.5 90 0.5 SW 6 13 3 7 1028.4 1001.1 0.0
31/03:30am 2.0 -1.0 0.8 92 0.5 W 6 11 3 6 1028.4 1001.1 0.0
31/03:20am 2.1 -0.9 0.8 91 0.5 NW 6 9 3 5 1028.5 1001.2 0.0
31/03:10am 1.8 -0.9 0.3 90 0.6 SE 4 6 2 3 1028.6 1001.3 0.0
31/03:00am 2.4 0.2 1.2 92 0.5 NW 2 6 1 3 1028.6 1001.3 0.0
31/02:50am 2.7 0.2 1.5 92 0.5 W 4 9 2 5 1028.5 1001.2 0.0
31/02:40am 2.6 0.1 1.4 92 0.5 W 4 7 2 4 1028.6 1001.3 0.0
31/02:30am 2.6 0.1 1.3 91 0.5 WSW 4 6 2 3 1028.6 1001.3 0.0
31/02:20am 3.0 0.5 1.8 92 0.5 WNW 4 11 2 6 1028.6 1001.3 0.0
31/02:10am 3.7 1.4 2.6 92 0.4 W 4 6 2 3 1028.7 1001.4 0.0
31/02:00am 3.9 1.3 3.0 94 0.4 NW 6 9 3 5 1028.8 1001.5 0.0
31/01:50am 2.4 -0.5 1.2 92 0.5 W 6 9 3 5 1028.8 1001.5 0.0
31/01:40am 2.2 -1.0 0.9 91 0.5 SSW 7 9 4 5 1029.0 1001.7 0.0
31/01:30am 2.8 0.3 1.5 91 0.5 W 4 6 2 3 1029.2 1001.9 0.0
31/01:20am 3.2 0.4 2.0 92 0.5 WNW 6 7 3 4 1029.2 1001.9 0.0
31/01:10am 2.4 -0.5 1.2 92 0.5 NNW 6 9 3 5 1029.1 1001.8 0.0
31/01:00am 3.0 0.2 1.8 92 0.5 S 6 6 3 3 1029.0 1001.7 0.0
31/12:50am 3.6 1.6 2.4 92 0.5 S 2 6 1 3 1028.7 1001.4 0.0
31/12:40am 3.3 0.9 2.0 91 0.5 NW 4 6 2 3 1028.6 1001.3 0.0
31/12:30am 3.7 1.4 2.5 92 0.5 NW 4 6 2 3 1028.6 1001.3 0.0
31/12:20am 3.9 2.0 2.7 92 0.5 WSW 2 4 1 2 1028.6 1001.3 0.0
31/12:10am 4.1 2.2 2.9 92 0.5 W 2 9 1 5 1028.5 1001.2 0.0
31/12:00am 4.5 2.3 3.2 91 0.5 WNW 4 7 2 4 1028.6 1001.3 0.0
 
Date/Time
EST
Temp
°C
App
Temp
°C
Dew
Point
°C
Rel
Hum
%
Delta-T
°C
Wind Press
QNH
hPa
Press
MSL
hPa
Rain since
9am
mm
Dir  Spd
km/h
Gust
km/h
Spd
kts
Gust
kts
30/11:50pm 5.0 2.5 4.0 93 0.4 NNW 6 7 3 4 1028.7 1001.4 0.0
30/11:40pm 4.3 2.1 3.1 92 0.5 WSW 4 7 2 4 1028.8 1001.5 0.0
30/11:30pm 4.5 2.3 3.2 91 0.5 SW 4 9 2 5 1028.9 1001.6 0.0
30/11:20pm 4.7 2.5 3.5 92 0.5 SSW 4 9 2 5 1028.9 1001.6 0.0
30/11:10pm 4.8 2.6 3.5 91 0.5 W 4 7 2 4 1029.1 1001.8 0.0
30/11:00pm 4.9 2.7 3.6 91 0.5 N 4 7 2 4 1029.2 1001.9 0.0
30/10:50pm 4.9 2.7 3.6 91 0.5 NW 4 6 2 3 1029.4 1002.1 0.0
30/10:40pm 5.4 3.0 4.1 91 0.6 W 6 7 3 4 1029.4 1002.1 0.0
30/10:30pm 6.2 4.3 5.1 93 0.5 W 4 6 2 3 1029.5 1002.2 0.0
30/10:20pm 6.2 4.3 5.0 92 0.5 SSW 4 7 2 4 1029.5 1002.2 0.0
30/10:10pm 5.9 4.3 4.7 92 0.5 SSW 2 6 1 3 1029.6 1002.3 0.0
30/10:00pm 6.1 4.2 4.8 91 0.6 W 4 9 2 5 1029.6 1002.3 0.0
30/09:50pm 6.2 4.3 5.0 92 0.5 WNW 4 6 2 3 1029.7 1002.4 0.0
30/09:40pm 6.2 4.7 4.8 91 0.6 N 2 6 1 3 1029.7 1002.4 0.0
30/09:30pm 6.7 5.3 5.3 91 0.6 WNW 2 4 1 2 1029.7 1002.4 0.0
30/09:20pm 6.6 4.8 5.3 91 0.6 W 4 4 2 2 1029.6 1002.3 0.0
30/09:10pm 6.8 5.0 5.3 90 0.7 SSW 4 4 2 2 1029.6 1002.3 0.0
30/09:00pm 7.2 5.5 5.8 91 0.6 SSW 4 7 2 4 1029.6 1002.3 0.0
30/08:50pm 7.0 5.6 5.4 89 0.7 W 2 6 1 3 1029.5 1002.2 0.0
30/08:40pm 7.5 5.8 5.9 90 0.7 N 4 6 2 3 1029.5 1002.2 0.0
30/08:30pm 7.9 6.6 6.1 88 0.8 NNW 2 4 1 2 1029.7 1002.4 0.0
30/08:20pm 8.2 6.6 6.5 89 0.8 W 4 6 2 3 1029.5 1002.2 0.0
30/08:10pm 8.2 6.6 6.4 88 0.8 SW 4 6 2 3 1029.4 1002.1 0.0
30/08:00pm 8.0 6.0 6.1 88 0.9 SSW 6 6 3 3 1029.5 1002.2 0.0
30/07:50pm 8.7 7.2 6.7 87 0.9 W 4 4 2 2 1029.3 1002.0 0.0
30/07:40pm 9.4 8.4 7.5 88 0.9 NNW 2 4 1 2 1029.4 1002.1 0.0
30/07:30pm 9.5 8.5 7.4 87 1.0 NW 2 4 1 2 1029.3 1002.0 0.0
30/07:20pm 9.4 8.0 7.1 85 1.1 N 4 6 2 3 1029.1 1001.8 0.0
30/07:10pm 9.8 8.8 7.4 85 1.2 WSW 2 4 1 2 1029.0 1001.7 0.0
30/07:00pm 10.4 9.5 7.9 84 1.2 SW 2 4 1 2 1028.8 1001.5 0.0
30/06:50pm 10.7 10.2 7.9 83 1.4 CALM 0 2 0 1 1028.7 1001.4 0.0
30/06:40pm 11.2 10.4 8.3 82 1.4 WNW 2 6 1 3 1028.5 1001.2 0.0
30/06:30pm 11.5 10.7 8.1 79 1.7 N 2 6 1 3 1028.5 1001.2 0.0
30/06:20pm 12.1 11.4 8.5 78 1.8 W 2 4 1 2 1028.5 1001.2 0.0
30/06:10pm 12.6 11.6 9.0 79 1.8 NW 4 6 2 3 1028.5 1001.2 0.0
30/06:00pm 13.1 12.4 8.7 74 2.2 WSW 2 6 1 3 1028.5 1001.2 0.0
30/05:50pm 14.1 13.3 9.7 75 2.3 SW 4 6 2 3 1028.4 1001.1 0.0
30/05:40pm 14.3 12.9 9.7 74 2.4 SSE 7 9 4 5 1028.4 1001.1 0.0
30/05:30pm 14.7 13.3 9.7 72 2.6 SE 7 9 4 5 1028.2 1000.9 0.0
30/05:20pm 15.2 13.4 9.6 69 2.9 SE 9 15 5 8 1027.9 1000.6 0.0
30/05:10pm 15.7 13.9 9.6 67 3.2 SE 9 13 5 7 1027.7 1000.4 0.0
30/05:00pm 16.4 15.3 9.9 65 3.4 SE 6 9 3 5 1027.6 1000.3 0.0
30/04:50pm 16.6 15.5 10.1 65 3.5 S 6 9 3 5 1027.6 1000.3 0.0
30/04:40pm 17.1 16.8 10.2 64 3.7 SE 2 6 1 3 1027.5 1000.2 0.0
30/04:30pm 17.2 16.9 10.2 63 3.8 SE 2 4 1 2 1027.5 1000.2 0.0
30/04:20pm 17.0 15.8 10.2 64 3.6 ESE 7 13 4 7 1027.5 1000.2 0.0
30/04:10pm 17.1 15.7 9.7 61 3.9 SE 7 11 4 6 1027.6 1000.3 0.0
30/04:00pm 17.4 15.4 10.3 63 3.8 SE 11 20 6 11 1027.5 1000.2 0.0
30/03:50pm 17.3 14.1 10.0 62 3.9 SE 17 22 9 12 1027.6 1000.3 0.0
30/03:40pm 18.2 15.7 9.8 58 4.5 SSE 13 17 7 9 1027.4 1000.1 0.0
30/03:30pm 18.7 16.0 10.3 58 4.5 SSE 15 20 8 11 1027.3 1000.0 0.0
30/03:20pm 18.8 15.3 10.1 57 4.7 SE 19 26 10 14 1027.0 999.7 0.0
30/03:10pm 19.5 17.5 10.0 54 5.1 SSE 11 19 6 10 1027.0 999.7 0.0
30/03:00pm 19.9 17.2 10.3 54 5.2 SSE 15 20 8 11 1026.7 999.4 0.0
30/02:50pm 20.7 18.0 10.5 52 5.6 SSE 15 22 8 12 1026.5 999.2 0.0
30/02:40pm 21.0 17.4 9.9 49 6.0 S 19 26 10 14 1026.3 999.0 0.0
30/02:30pm 21.0 17.8 9.8 48 6.1 SSE 17 22 9 12 1026.2 998.9 0.0
30/02:20pm 21.6 17.9 9.5 46 6.6 ESE 19 24 10 13 1026.1 998.8 0.0
30/02:10pm 22.6 18.4 7.6 38 7.9 SE 19 32 10 17 1026.1 998.8 0.0
30/02:00pm 23.6 20.2 4.0 28 9.7 S 11 19 6 10 1025.8 998.6 0.0
30/01:50pm 24.4 21.7 3.5 25 10.3 SW 7 15 4 8 1025.9 998.7 0.0
30/01:40pm 23.9 21.3 3.2 26 10.1 SSW 6 15 3 8 1026.1 998.8 0.0
30/01:30pm 23.3 20.6 2.5 25 10.0 SW 6 15 3 8 1026.3 999.0 0.0
30/01:20pm 23.4 19.9 3.6 27 9.7 S 11 15 6 8 1026.4 999.1 0.0
30/01:10pm 23.5 20.0 3.3 26 9.9 SSW 11 20 6 11 1026.5 999.2 0.0
30/01:00pm 23.6 20.1 3.6 27 9.8 S 11 32 6 17 1026.7 999.4 0.0
30/12:50pm 23.0 20.8 3.2 27 9.6 S 4 11 2 6 1026.9 999.6 0.0
30/12:40pm 23.0 20.8 3.6 28 9.5 N 4 6 2 3 1027.0 999.7 0.0
30/12:30pm 22.3 19.7 3.3 28 9.2 ENE 6 11 3 6 1027.2 999.9 0.0
30/12:20pm 22.1 19.6 4.6 32 8.7 E 7 11 4 6 1027.3 1000.0 0.0
30/12:10pm 21.4 18.9 3.5 31 8.7 SE 6 9 3 5 1027.5 1000.2 0.0
30/12:00pm 21.7 18.8 4.4 32 8.5 SE 9 15 5 8 1027.7 1000.4 0.0
30/11:50am 21.7 19.9 5.3 34 8.2 E 4 9 2 5 1027.8 1000.5 0.0
30/11:40am 20.8 18.6 3.6 32 8.3 E 4 9 2 5 1028.0 1000.7 0.0
30/11:30am 20.2 17.9 4.6 36 7.6 SE 6 7 3 4 1028.1 1000.8 0.0
30/11:20am 19.8 17.3 4.5 36 7.5 SE 7 9 4 5 1028.2 1000.9 0.0
30/11:10am 19.4 17.4 6.1 41 6.7 E 6 9 3 5 1028.4 1001.1 0.0
30/11:00am 18.9 16.8 5.9 42 6.5 E 6 9 3 5 1028.6 1001.3 0.0
30/10:50am 17.9 15.7 6.1 46 5.9 E 7 9 4 5 1028.8 1001.5 0.0
30/10:40am 17.6 15.5 6.7 48 5.5 ESE 7 11 4 6 1029.0 1001.7 0.0
30/10:30am 16.9 15.3 6.2 49 5.3 ESE 4 6 2 3 1029.2 1001.9 0.0
30/10:20am 16.2 14.3 5.0 47 5.4 SSE 4 6 2 3 1029.3 1002.0 0.0
30/10:10am 15.6 14.2 7.3 57 4.2 S 4 7 2 4 1029.5 1002.2 0.0
30/10:00am 14.9 13.7 7.9 63 3.5 E 4 7 2 4 1029.6 1002.3 0.0
30/09:50am 14.5 12.9 7.9 64 3.3 N 6 7 3 4 1029.8 1002.5 0.0
30/09:40am 14.5 13.4 8.4 67 3.1 N 4 6 2 3 1029.9 1002.6 0.0
30/09:30am 13.3 12.1 8.2 71 2.6 ENE 4 6 2 3 1030.0 1002.7 0.0
30/09:20am 12.5 11.3 8.2 75 2.1 ESE 4 6 2 3 1030.0 1002.7 0.0
30/09:10am 11.6 10.2 7.3 75 2.1 ESE 4 6 2 3 1029.8 1002.5 0.0
30/09:00am 11.0 9.6 7.2 77 1.8 E 4 7 2 4 1029.8 1002.5 0.0
30/08:50am 10.3 8.5 7.0 80 1.6 ESE 6 9 3 5 1029.8 1002.5 0.0
30/08:40am 10.1 8.4 7.4 83 1.3 E 6 11 3 6 1029.6 1002.3 0.0
30/08:30am 9.6 8.1 6.9 83 1.3 NE 4 11 2 6 1029.5 1002.2 0.0
30/08:20am 9.0 7.5 6.7 85 1.1 N 4 6 2 3 1029.3 1002.0 0.0
30/08:10am 8.3 6.4 6.6 89 0.8 NNW 6 11 3 6 1029.1 1001.8 0.0
30/08:00am 7.4 5.3 6.0 91 0.6 N 6 7 3 4 1029.2 1001.9 0.0
30/07:50am 6.6 5.2 5.4 92 0.5 S 2 6 1 3 1029.0 1001.7 0.0
30/07:40am 5.4 3.4 4.3 93 0.5 SW 4 7 2 4 1029.0 1001.7 0.0
30/07:30am 3.8 1.5 2.6 92 0.5 NNE 4 9 2 5 1028.7 1001.4 0.0
30/07:20am 3.6 1.3 2.5 92 0.4 NE 4 6 2 3 1028.8 1001.5 0.0
30/07:10am 2.8 -0.1 1.6 92 0.5 SE 6 7 3 4 1028.7 1001.4 0.0
30/07:00am 2.1 -0.9 0.8 91 0.5 E 6 9 3 5 1028.5 1001.2 0.0
30/06:50am 3.2 0.4 2.1 92 0.4 N 6 7 3 4 1028.3 1001.0 0.0
30/06:40am 2.6 -0.3 1.2 90 0.5 N 6 9 3 5 1028.3 1001.0 0.0
30/06:30am 3.3 0.9 2.2 92 0.4 NW 4 7 2 4 1028.3 1001.0 0.0
30/06:20am 3.1 0.7 2.0 92 0.4 SSW 4 6 2 3 1028.2 1000.9 0.0
30/06:10am 3.6 1.3 2.5 92 0.4 SSW 4 6 2 3 1028.2 1000.9 0.0

Other formats

Comma delimited format used in spreadsheet applications
http://www.bom.gov.au/fwo/IDN60801/IDN60801.99392.axf

JavaScript Object Notation format (JSON) in row-major order
http://www.bom.gov.au/fwo/IDN60801/IDN60801.99392.json

Data quality

Most of these data are generated automatically and are frequently updated. Quality checks on data are not normally performed. It is possible for incorrect values to appear. Refer to information at About Latest Weather Observations and please check the disclaimer before using these data.